sensor_id;sensor_type;location;lat;lon;timestamp;temperature;humidity
38265;DHT22;24062;47.480;8.768;2023-07-28T00:01:34;25.20;57.50
38265;DHT22;24062;47.480;8.768;2023-07-28T00:04:01;25.20;57.60
38265;DHT22;24062;47.480;8.768;2023-07-28T00:06:29;25.20;57.60
38265;DHT22;24062;47.480;8.768;2023-07-28T00:08:56;25.20;57.60
38265;DHT22;24062;47.480;8.768;2023-07-28T00:11:25;25.10;57.60
38265;DHT22;24062;47.480;8.768;2023-07-28T00:13:52;25.10;57.60
38265;DHT22;24062;47.480;8.768;2023-07-28T00:16:19;25.10;57.60
38265;DHT22;24062;47.480;8.768;2023-07-28T00:18:46;25.20;57.70
38265;DHT22;24062;47.480;8.768;2023-07-28T00:21:13;25.10;57.60
38265;DHT22;24062;47.480;8.768;2023-07-28T00:23:40;25.10;57.70
38265;DHT22;24062;47.480;8.768;2023-07-28T00:26:07;25.10;57.70
38265;DHT22;24062;47.480;8.768;2023-07-28T00:28:35;25.10;57.70
38265;DHT22;24062;47.480;8.768;2023-07-28T00:31:02;25.10;57.70
38265;DHT22;24062;47.480;8.768;2023-07-28T00:33:29;25.10;57.70
38265;DHT22;24062;47.480;8.768;2023-07-28T00:35:56;25.10;57.80
38265;DHT22;24062;47.480;8.768;2023-07-28T00:38:23;25.00;57.70
38265;DHT22;24062;47.480;8.768;2023-07-28T00:40:50;25.10;57.80
38265;DHT22;24062;47.480;8.768;2023-07-28T00:43:17;25.10;57.80
38265;DHT22;24062;47.480;8.768;2023-07-28T00:45:46;25.00;57.80
38265;DHT22;24062;47.480;8.768;2023-07-28T00:48:13;25.00;57.80
38265;DHT22;24062;47.480;8.768;2023-07-28T00:50:41;25.00;57.90
38265;DHT22;24062;47.480;8.768;2023-07-28T00:53:08;25.00;57.90
38265;DHT22;24062;47.480;8.768;2023-07-28T00:55:35;25.00;57.90
38265;DHT22;24062;47.480;8.768;2023-07-28T00:58:02;25.00;57.90
38265;DHT22;24062;47.480;8.768;2023-07-28T01:00:29;25.00;57.90
38265;DHT22;24062;47.480;8.768;2023-07-28T01:02:58;25.00;57.90
38265;DHT22;24062;47.480;8.768;2023-07-28T01:05:28;25.00;58.00
38265;DHT22;24062;47.480;8.768;2023-07-28T01:08:01;24.90;57.90
38265;DHT22;24062;47.480;8.768;2023-07-28T01:10:31;24.90;57.90
38265;DHT22;24062;47.480;8.768;2023-07-28T01:12:58;24.90;57.90
38265;DHT22;24062;47.480;8.768;2023-07-28T01:15:25;24.90;57.90
38265;DHT22;24062;47.480;8.768;2023-07-28T01:17:52;24.90;57.90
38265;DHT22;24062;47.480;8.768;2023-07-28T01:20:23;24.90;57.90
38265;DHT22;24062;47.480;8.768;2023-07-28T01:23:08;24.90;57.90
38265;DHT22;24062;47.480;8.768;2023-07-28T01:25:43;24.90;57.90
38265;DHT22;24062;47.480;8.768;2023-07-28T01:28:15;24.90;58.00
38265;DHT22;24062;47.480;8.768;2023-07-28T01:30:42;24.90;58.00
38265;DHT22;24062;47.480;8.768;2023-07-28T01:33:09;24.90;58.00
38265;DHT22;24062;47.480;8.768;2023-07-28T01:35:36;24.90;58.10
38265;DHT22;24062;47.480;8.768;2023-07-28T01:38:04;24.80;58.60
38265;DHT22;24062;47.480;8.768;2023-07-28T01:40:31;24.90;58.10
38265;DHT22;24062;47.480;8.768;2023-07-28T01:42:58;24.80;58.10
38265;DHT22;24062;47.480;8.768;2023-07-28T01:45:26;24.80;58.10
38265;DHT22;24062;47.480;8.768;2023-07-28T01:47:53;24.80;58.10
38265;DHT22;24062;47.480;8.768;2023-07-28T01:50:20;24.80;58.10
38265;DHT22;24062;47.480;8.768;2023-07-28T01:52:47;24.80;58.10
38265;DHT22;24062;47.480;8.768;2023-07-28T01:55:14;24.80;58.10
38265;DHT22;24062;47.480;8.768;2023-07-28T01:57:50;24.80;58.10
38265;DHT22;24062;47.480;8.768;2023-07-28T02:00:18;24.80;58.10
38265;DHT22;24062;47.480;8.768;2023-07-28T02:02:46;24.80;58.20
38265;DHT22;24062;47.480;8.768;2023-07-28T02:05:13;24.80;58.20
38265;DHT22;24062;47.480;8.768;2023-07-28T02:07:41;24.70;58.10
38265;DHT22;24062;47.480;8.768;2023-07-28T02:10:09;24.80;58.20
38265;DHT22;24062;47.480;8.768;2023-07-28T02:12:36;24.80;58.20
38265;DHT22;24062;47.480;8.768;2023-07-28T02:15:05;24.70;58.20
38265;DHT22;24062;47.480;8.768;2023-07-28T02:17:32;24.70;58.20
38265;DHT22;24062;47.480;8.768;2023-07-28T02:20:00;24.70;58.20
38265;DHT22;24062;47.480;8.768;2023-07-28T02:22:28;24.70;58.20
38265;DHT22;24062;47.480;8.768;2023-07-28T02:24:55;24.70;58.20
38265;DHT22;24062;47.480;8.768;2023-07-28T02:27:25;24.70;58.20
38265;DHT22;24062;47.480;8.768;2023-07-28T02:29:53;24.70;58.30
38265;DHT22;24062;47.480;8.768;2023-07-28T02:32:20;24.70;58.30
38265;DHT22;24062;47.480;8.768;2023-07-28T02:34:47;24.70;58.30
38265;DHT22;24062;47.480;8.768;2023-07-28T02:37:15;24.60;58.20
38265;DHT22;24062;47.480;8.768;2023-07-28T02:39:42;24.60;58.20
38265;DHT22;24062;47.480;8.768;2023-07-28T02:42:09;24.60;58.20
38265;DHT22;24062;47.480;8.768;2023-07-28T02:44:36;24.60;58.20
38265;DHT22;24062;47.480;8.768;2023-07-28T02:47:03;24.60;58.20
38265;DHT22;24062;47.480;8.768;2023-07-28T02:49:30;24.60;58.20
38265;DHT22;24062;47.480;8.768;2023-07-28T02:51:57;24.60;58.20
38265;DHT22;24062;47.480;8.768;2023-07-28T02:54:25;24.60;58.80
38265;DHT22;24062;47.480;8.768;2023-07-28T02:57:06;24.60;58.30
38265;DHT22;24062;47.480;8.768;2023-07-28T02:59:35;24.60;58.30
38265;DHT22;24062;47.480;8.768;2023-07-28T03:02:02;24.60;58.40
38265;DHT22;24062;47.480;8.768;2023-07-28T03:04:29;24.50;58.30
38265;DHT22;24062;47.480;8.768;2023-07-28T03:06:56;24.50;58.30
38265;DHT22;24062;47.480;8.768;2023-07-28T03:09:22;24.50;58.30
38265;DHT22;24062;47.480;8.768;2023-07-28T03:11:51;24.50;58.30
38265;DHT22;24062;47.480;8.768;2023-07-28T03:14:18;24.50;58.40
38265;DHT22;24062;47.480;8.768;2023-07-28T03:16:45;24.50;58.40
38265;DHT22;24062;47.480;8.768;2023-07-28T03:19:12;24.50;58.40
38265;DHT22;24062;47.480;8.768;2023-07-28T03:21:38;24.50;58.40
38265;DHT22;24062;47.480;8.768;2023-07-28T03:24:05;24.50;58.40
38265;DHT22;24062;47.480;8.768;2023-07-28T03:26:32;24.50;58.50
38265;DHT22;24062;47.480;8.768;2023-07-28T03:29:01;24.50;58.50
38265;DHT22;24062;47.480;8.768;2023-07-28T03:31:27;24.50;58.50
38265;DHT22;24062;47.480;8.768;2023-07-28T03:33:54;24.40;58.50
38265;DHT22;24062;47.480;8.768;2023-07-28T03:36:21;24.40;58.50
38265;DHT22;24062;47.480;8.768;2023-07-28T03:38:48;24.40;58.50
38265;DHT22;24062;47.480;8.768;2023-07-28T03:41:15;24.40;58.50
38265;DHT22;24062;47.480;8.768;2023-07-28T03:43:42;24.40;58.50
38265;DHT22;24062;47.480;8.768;2023-07-28T03:46:10;24.40;58.50
38265;DHT22;24062;47.480;8.768;2023-07-28T03:48:37;24.40;58.50
38265;DHT22;24062;47.480;8.768;2023-07-28T03:51:04;24.40;58.60
38265;DHT22;24062;47.480;8.768;2023-07-28T03:53:31;24.40;58.60
38265;DHT22;24062;47.480;8.768;2023-07-28T03:56:00;24.40;58.60
38265;DHT22;24062;47.480;8.768;2023-07-28T03:58:27;24.40;58.60
38265;DHT22;24062;47.480;8.768;2023-07-28T04:00:54;24.40;58.60
38265;DHT22;24062;47.480;8.768;2023-07-28T04:03:23;24.40;58.60
38265;DHT22;24062;47.480;8.768;2023-07-28T04:05:49;24.40;58.60
38265;DHT22;24062;47.480;8.768;2023-07-28T04:08:16;24.30;58.60
38265;DHT22;24062;47.480;8.768;2023-07-28T04:10:43;24.30;58.60
38265;DHT22;24062;47.480;8.768;2023-07-28T04:13:10;24.40;58.70
38265;DHT22;24062;47.480;8.768;2023-07-28T04:15:37;24.40;58.70
38265;DHT22;24062;47.480;8.768;2023-07-28T04:18:04;24.30;58.60
38265;DHT22;24062;47.480;8.768;2023-07-28T04:20:32;24.30;58.60
38265;DHT22;24062;47.480;8.768;2023-07-28T04:23:00;24.30;58.60
38265;DHT22;24062;47.480;8.768;2023-07-28T04:25:27;24.40;58.70
38265;DHT22;24062;47.480;8.768;2023-07-28T04:27:54;24.30;58.60
38265;DHT22;24062;47.480;8.768;2023-07-28T04:30:22;24.30;58.60
38265;DHT22;24062;47.480;8.768;2023-07-28T04:32:48;24.40;58.60
38265;DHT22;24062;47.480;8.768;2023-07-28T04:35:15;24.40;58.60
38265;DHT22;24062;47.480;8.768;2023-07-28T04:37:44;24.40;58.50
38265;DHT22;24062;47.480;8.768;2023-07-28T04:40:11;24.40;59.10
38265;DHT22;24062;47.480;8.768;2023-07-28T04:42:38;24.40;58.60
38265;DHT22;24062;47.480;8.768;2023-07-28T04:45:06;24.50;58.50
38265;DHT22;24062;47.480;8.768;2023-07-28T04:47:33;24.40;58.40
38265;DHT22;24062;47.480;8.768;2023-07-28T04:50:00;24.40;58.40
38265;DHT22;24062;47.480;8.768;2023-07-28T04:52:27;24.50;58.40
38265;DHT22;24062;47.480;8.768;2023-07-28T04:54:56;24.50;58.50
38265;DHT22;24062;47.480;8.768;2023-07-28T04:57:23;24.40;58.40
38265;DHT22;24062;47.480;8.768;2023-07-28T04:59:49;24.50;58.40
38265;DHT22;24062;47.480;8.768;2023-07-28T05:02:17;24.50;58.40
38265;DHT22;24062;47.480;8.768;2023-07-28T05:04:44;24.50;58.30
38265;DHT22;24062;47.480;8.768;2023-07-28T05:07:11;24.50;58.30
38265;DHT22;24062;47.480;8.768;2023-07-28T05:09:38;24.50;58.40
38265;DHT22;24062;47.480;8.768;2023-07-28T05:12:07;24.50;58.40
38265;DHT22;24062;47.480;8.768;2023-07-28T05:14:34;24.60;58.40
38265;DHT22;24062;47.480;8.768;2023-07-28T05:17:01;24.50;58.40
38265;DHT22;24062;47.480;8.768;2023-07-28T05:19:28;24.60;58.30
38265;DHT22;24062;47.480;8.768;2023-07-28T05:21:55;24.60;58.30
38265;DHT22;24062;47.480;8.768;2023-07-28T05:24:22;24.60;58.30
38265;DHT22;24062;47.480;8.768;2023-07-28T05:26:49;24.50;58.30
38265;DHT22;24062;47.480;8.768;2023-07-28T05:29:17;24.50;58.30
38265;DHT22;24062;47.480;8.768;2023-07-28T05:31:44;24.50;58.30
38265;DHT22;24062;47.480;8.768;2023-07-28T05:34:11;24.40;58.10
38265;DHT22;24062;47.480;8.768;2023-07-28T05:36:38;24.50;58.30
38265;DHT22;24062;47.480;8.768;2023-07-28T05:39:05;24.50;58.20
38265;DHT22;24062;47.480;8.768;2023-07-28T05:41:32;24.60;58.20
38265;DHT22;24062;47.480;8.768;2023-07-28T05:43:59;24.60;58.10
38265;DHT22;24062;47.480;8.768;2023-07-28T05:46:27;24.70;58.10
38265;DHT22;24062;47.480;8.768;2023-07-28T05:48:54;24.60;58.00
38265;DHT22;24062;47.480;8.768;2023-07-28T05:51:22;24.70;58.00
38265;DHT22;24062;47.480;8.768;2023-07-28T05:53:49;24.70;57.90
38265;DHT22;24062;47.480;8.768;2023-07-28T05:56:16;24.70;57.90
38265;DHT22;24062;47.480;8.768;2023-07-28T05:58:43;24.70;57.90
38265;DHT22;24062;47.480;8.768;2023-07-28T06:01:10;24.70;57.90
38265;DHT22;24062;47.480;8.768;2023-07-28T06:03:39;24.70;57.80
38265;DHT22;24062;47.480;8.768;2023-07-28T06:06:06;24.80;57.80
38265;DHT22;24062;47.480;8.768;2023-07-28T06:08:34;24.80;57.80
38265;DHT22;24062;47.480;8.768;2023-07-28T06:11:03;24.80;57.70
38265;DHT22;24062;47.480;8.768;2023-07-28T06:13:31;24.80;57.70
38265;DHT22;24062;47.480;8.768;2023-07-28T06:15:58;24.80;57.80
38265;DHT22;24062;47.480;8.768;2023-07-28T06:18:25;24.70;57.70
38265;DHT22;24062;47.480;8.768;2023-07-28T06:20:54;24.80;57.80
38265;DHT22;24062;47.480;8.768;2023-07-28T06:23:21;24.80;57.70
38265;DHT22;24062;47.480;8.768;2023-07-28T06:25:48;24.80;57.70
38265;DHT22;24062;47.480;8.768;2023-07-28T06:28:15;24.80;57.60
38265;DHT22;24062;47.480;8.768;2023-07-28T06:30:42;24.90;57.60
38265;DHT22;24062;47.480;8.768;2023-07-28T06:33:09;25.00;57.50
38265;DHT22;24062;47.480;8.768;2023-07-28T06:35:36;25.10;57.30
38265;DHT22;24062;47.480;8.768;2023-07-28T06:38:05;25.30;57.30
38265;DHT22;24062;47.480;8.768;2023-07-28T06:40:32;25.40;56.90
38265;DHT22;24062;47.480;8.768;2023-07-28T06:42:58;25.40;56.80
38265;DHT22;24062;47.480;8.768;2023-07-28T06:45:25;25.60;56.60
38265;DHT22;24062;47.480;8.768;2023-07-28T06:47:52;25.70;56.40
38265;DHT22;24062;47.480;8.768;2023-07-28T06:50:19;25.70;56.30
38265;DHT22;24062;47.480;8.768;2023-07-28T06:52:46;25.80;56.20
38265;DHT22;24062;47.480;8.768;2023-07-28T06:55:17;25.90;56.10
38265;DHT22;24062;47.480;8.768;2023-07-28T06:57:44;25.90;56.00
38265;DHT22;24062;47.480;8.768;2023-07-28T07:00:12;26.00;55.90
